Aérodrome :
LOGIN :

S'inscrire | Disclaimer

   EN    FR    IT 

 










Légende :    VFR   VFR Marginal   IFR   IFR Intensif   IFR Très Intensif
Visi : 
Plafond : 
>= 8 km
>= 3000ft
5 à 8 km
1000 à 3000 ft
1500m à 5 km
500 à 1000 ft
800 à 1500m
200 à 500 ft
< 800m
< 200 ft
Symboles :   Orages  Brouillard  Fortes neiges  Fortes précipitations  Vent > 20 kt
SIGMETs :   Divers  Orages  Givrage  Turbulence  Onde Orograph.  Cendres Volcan.







- Altitude de l'aérodrome : 1682 ft
- Code IATA : VIT


LEVT - Vitoria Gasteiz

DERNIER METAR :
  • 152030Z 00000KT CAVOK 03/01 Q1028

METARs EXPIRÉS :
  • 152000Z 00000KT CAVOK 05/02 Q1027
  • 151930Z 04003KT CAVOK 04/02 Q1028
  • 151900Z VRB02KT CAVOK 06/02 Q1027
  • 151830Z 25003KT CAVOK 09/04 Q1027
  • 151800Z 22004KT 180V260 CAVOK 10/04 Q1027

TAF TAF LEVT
Valide du 15 à 18h jusqu'au 16 à 18h UTC


151700Z 1518/1618 22008KT CAVOK TX14/1615Z TNM01/1606Z
PROB30
TEMPO 1603/1608 1500 BCFG
TEMPO 1612/1618 20015G25KT
Pas de NOTAMs connus pour ce terrain.
1 SIGMET publié pour la FIR Madrid (LECM) :
 
Turbulence forte
LECM SIGMET 1 VALID 151800/152200 LEVA
LECM MADRID FIR/UIR SEV TURB FCST W OF LINE N4459 W01033 - N4238 W01202 FL200/360 MOV E 15KT NC=



MET'MAP, la Météo Aéronautique d'un coup d'oeil ! - Copyright ORBIFLY Décembre 2007 - Disclaimer

ORBIFLY MET'MAP TEAM :

Programmation & Développement : Alexandra Zaïnal
Conception & Développement : Baudouin d'Aumeries
Co-Programmation & Développement : Marc-Olivier Méhu
Soutien technique & logistique : Manuel Goepfert

Contact : metmap@orbifly.com




SOURCES & CREDITS :

   NOAA